Gypsy, West Virginia
Current Conditions -  °F | °C
As of 3:53 PM on Friday 31 Oct 2014 (Local Time) from KCKB Reporting Station
Light Rain Light Rain  
Wind Chill: 45°   Ceiling: 5000
Heat Index: 47°   Visibility: 10mi
Dew Point: 37°   Wind: 5mph
Humidity: 68%   Direction: 300°WNW
Pressure: 29.84"   Gusts: NA
Location:  39.37°N, 80.32°W
Report Text: KCKB 311953Z 30004KT 10SM -RA FEW030 SCT041 OVC050 08/03 A2984 RMK AO2 RAB1859 SLP104 P0000 T00830028
Loading
Personal Weather Stations






























Interactive Weather Map
Tropical Storm Tracking
New forecast layout! Learn more

10-Day Weather Forecast

Advertisements
Track Severe Weather on mobile